createdAt,value
2022-10-01T00:00:04.248Z,15.14
2022-10-01T00:03:04.271Z,15.12
2022-10-01T00:05:04.227Z,15.1
2022-10-01T00:08:04.242Z,15.11
2022-10-01T00:10:04.228Z,15.13
2022-10-01T00:13:04.200Z,15.11
2022-10-01T00:15:06.066Z,15.1
2022-10-01T00:17:04.198Z,15.08
2022-10-01T00:20:10.625Z,15.09
2022-10-01T00:23:04.186Z,15.1
2022-10-01T00:25:04.192Z,15.09
2022-10-01T00:27:04.224Z,15.08
2022-10-01T00:29:58.730Z,15.08
2022-10-01T00:32:04.234Z,15.07
2022-10-01T00:34:04.185Z,15.04
2022-10-01T00:36:04.249Z,15.04
2022-10-01T00:39:04.180Z,15.05
2022-10-01T00:41:04.221Z,15.06
2022-10-01T00:44:04.169Z,15.05
2022-10-01T00:46:04.306Z,15.04
2022-10-01T00:49:04.174Z,15.02
2022-10-01T00:51:04.196Z,15.01
2022-10-01T00:54:04.329Z,15.02
2022-10-01T00:57:04.230Z,15.03
2022-10-01T01:00:04.193Z,15
2022-10-01T01:02:04.265Z,15.01
2022-10-01T01:07:04.220Z,15.03
2022-10-01T01:09:14.489Z,15.03
2022-10-01T01:11:14.483Z,15.04
2022-10-01T01:14:04.192Z,15.05
2022-10-01T01:17:04.241Z,15.03
2022-10-01T01:20:04.211Z,15.04
2022-10-01T01:22:04.208Z,15.04
2022-10-01T01:25:04.238Z,15.01
2022-10-01T01:28:04.257Z,15.02
2022-10-01T01:30:04.218Z,15
2022-10-01T01:33:04.246Z,14.97
2022-10-01T01:36:04.205Z,14.96
2022-10-01T01:38:04.235Z,15
2022-10-01T01:40:04.250Z,14.99
2022-10-01T01:43:04.223Z,15
2022-10-01T01:45:04.212Z,14.99
2022-10-01T01:48:04.256Z,14.96
2022-10-01T01:51:04.223Z,14.95
2022-10-01T01:54:04.188Z,14.98
2022-10-01T01:56:04.673Z,14.96
2022-10-01T01:59:04.190Z,14.94
2022-10-01T02:01:04.280Z,14.97
2022-10-01T02:03:04.236Z,14.95
2022-10-01T02:06:04.221Z,14.97
2022-10-01T02:08:04.246Z,14.94
2022-10-01T02:11:04.217Z,14.95
2022-10-01T02:13:04.233Z,14.93
2022-10-01T02:16:04.445Z,14.94
2022-10-01T02:19:04.200Z,14.93
2022-10-01T02:22:04.222Z,14.91
2022-10-01T02:24:04.200Z,14.91
2022-10-01T02:26:04.225Z,14.91
2022-10-01T02:28:04.314Z,14.89
2022-10-01T02:31:04.298Z,14.86
2022-10-01T02:34:04.179Z,14.89
2022-10-01T02:37:04.222Z,14.88
2022-10-01T02:40:04.247Z,14.89
2022-10-01T02:43:04.240Z,14.89
2022-10-01T02:45:04.247Z,14.89
2022-10-01T02:48:04.222Z,14.92
2022-10-01T02:51:04.196Z,14.9
2022-10-01T02:53:04.234Z,14.89
2022-10-01T02:56:04.202Z,14.84
2022-10-01T02:58:04.234Z,14.85
2022-10-01T03:00:06.818Z,14.83
2022-10-01T03:03:04.222Z,14.83
2022-10-01T03:06:04.254Z,14.85
2022-10-01T03:09:04.206Z,14.88
2022-10-01T03:12:04.235Z,14.79
2022-10-01T03:14:04.218Z,14.83
2022-10-01T03:17:04.279Z,14.74
2022-10-01T03:20:04.197Z,14.69
2022-10-01T03:22:04.204Z,14.76
2022-10-01T03:25:04.209Z,14.8
2022-10-01T03:28:04.269Z,14.79
2022-10-01T03:30:04.239Z,14.8
2022-10-01T03:33:04.205Z,14.78
2022-10-01T03:36:04.254Z,14.84
2022-10-01T03:39:04.179Z,14.83
2022-10-01T03:41:04.194Z,14.83
2022-10-01T03:44:04.190Z,14.82
2022-10-01T03:46:05.646Z,14.82
2022-10-01T03:49:04.195Z,14.85
2022-10-01T03:52:04.222Z,14.86
2022-10-01T03:54:04.219Z,14.83
2022-10-01T03:57:04.284Z,14.87
2022-10-01T04:00:04.201Z,14.83
2022-10-01T04:03:04.251Z,14.84
2022-10-01T04:05:04.230Z,14.89
2022-10-01T04:07:04.287Z,14.91
2022-10-01T04:10:04.226Z,14.91
2022-10-01T04:12:04.211Z,14.92
2022-10-01T04:15:04.223Z,14.93
2022-10-01T04:18:04.225Z,14.97
2022-10-01T04:21:04.259Z,14.99
2022-10-01T04:24:04.277Z,15.03
2022-10-01T04:27:04.211Z,15.05
2022-10-01T04:29:04.246Z,15.05
2022-10-01T04:31:04.245Z,15.03
2022-10-01T04:33:04.236Z,15.05
2022-10-01T04:36:04.243Z,15.06
2022-10-01T04:39:04.233Z,15.06
2022-10-01T04:41:04.276Z,15.06
2022-10-01T04:44:04.219Z,15.04
2022-10-01T04:47:04.268Z,15.06
2022-10-01T04:49:04.247Z,15.05
2022-10-01T04:52:04.267Z,15.05
2022-10-01T04:55:04.212Z,15.05
2022-10-01T04:57:04.257Z,15.03
2022-10-01T05:00:04.248Z,15.05
2022-10-01T05:03:04.244Z,15.07
2022-10-01T05:05:04.222Z,15.04
2022-10-01T05:07:04.239Z,15.03
2022-10-01T05:09:04.240Z,15.02
2022-10-01T05:12:04.223Z,15.03
2022-10-01T05:14:04.232Z,15.03
2022-10-01T05:17:04.235Z,15.01
2022-10-01T05:20:04.255Z,15
2022-10-01T05:23:04.263Z,15.02
2022-10-01T05:25:04.238Z,15.02
2022-10-01T05:27:04.230Z,15.05
2022-10-01T05:30:04.253Z,15.07
2022-10-01T05:33:04.230Z,15.08
2022-10-01T05:36:04.291Z,15.05
2022-10-01T05:39:04.230Z,15.01
2022-10-01T05:41:04.268Z,15
2022-10-01T05:44:04.213Z,14.98
2022-10-01T05:46:04.289Z,15
2022-10-01T05:48:04.274Z,14.95
2022-10-01T05:51:04.548Z,14.96
2022-10-01T05:54:04.226Z,14.99
2022-10-01T05:56:04.253Z,15.01
2022-10-01T05:58:04.248Z,15.02
2022-10-01T06:01:04.253Z,15.04
2022-10-01T06:03:04.411Z,14.99
2022-10-01T06:06:04.287Z,15.01
2022-10-01T06:08:04.870Z,15.02
2022-10-01T06:11:04.263Z,15.06
2022-10-01T06:13:04.273Z,15
2022-10-01T06:15:04.271Z,14.99
2022-10-01T06:18:04.263Z,15.01
2022-10-01T06:21:04.281Z,14.96
2022-10-01T06:24:04.234Z,14.97
2022-10-01T06:27:04.249Z,14.95
2022-10-01T06:29:04.248Z,14.95
2022-10-01T06:31:04.261Z,14.99
2022-10-01T06:33:04.317Z,15.01
2022-10-01T06:36:04.256Z,15.03
2022-10-01T06:38:04.252Z,15.05
2022-10-01T06:41:04.260Z,15.09
2022-10-01T06:44:04.209Z,15.08
2022-10-01T06:46:04.645Z,15.07
2022-10-01T06:49:04.233Z,15.09
2022-10-01T06:51:05.259Z,15.1
2022-10-01T06:54:04.284Z,15.14
2022-10-01T06:56:04.277Z,15.18
2022-10-01T06:59:04.245Z,15.14
2022-10-01T07:02:04.297Z,15.14
2022-10-01T07:06:04.264Z,15
2022-10-01T07:09:04.235Z,14.95
2022-10-01T07:11:07.397Z,14.85
2022-10-01T07:14:04.256Z,14.7
2022-10-01T07:17:04.256Z,14.72
2022-10-01T07:19:04.258Z,14.74
2022-10-01T07:22:04.226Z,14.58
2022-10-01T07:24:04.264Z,14.57
2022-10-01T07:27:07.194Z,14.53
2022-10-01T07:31:04.256Z,14.58
2022-10-01T07:34:04.252Z,14.51
2022-10-01T07:36:04.296Z,14.4
2022-10-01T07:39:04.692Z,14.34
2022-10-01T07:42:04.278Z,14.28
2022-10-01T07:45:04.270Z,14.23
2022-10-01T07:47:04.279Z,14.23
2022-10-01T07:50:04.257Z,14.23
2022-10-01T07:52:04.280Z,14.17
2022-10-01T07:55:04.252Z,14.19
2022-10-01T07:57:04.270Z,14.21
2022-10-01T08:00:04.284Z,14.25
2022-10-01T08:03:04.242Z,14.3
2022-10-01T08:06:04.233Z,14.45
2022-10-01T08:08:04.245Z,14.51
2022-10-01T08:10:04.284Z,14.5
2022-10-01T08:13:04.308Z,14.48
2022-10-01T08:16:04.264Z,14.52
2022-10-01T08:19:04.227Z,14.53
2022-10-01T08:21:04.237Z,14.5
2022-10-01T08:24:04.205Z,14.37
2022-10-01T08:26:04.227Z,14.28
2022-10-01T08:28:04.292Z,14.21
2022-10-01T08:30:04.267Z,14.21
2022-10-01T08:33:04.226Z,14.23
2022-10-01T08:36:04.263Z,14.3
2022-10-01T08:38:04.286Z,14.38
2022-10-01T08:41:04.235Z,14.44
2022-10-01T08:43:04.245Z,14.44
2022-10-01T08:46:04.378Z,14.49
2022-10-01T08:49:04.256Z,14.56
2022-10-01T08:52:04.236Z,14.64
2022-10-01T08:54:04.244Z,14.65
2022-10-01T08:57:04.293Z,14.69
2022-10-01T09:00:04.236Z,14.77
2022-10-01T09:02:04.250Z,14.82
2022-10-01T09:04:04.307Z,14.78
2022-10-01T09:07:04.254Z,14.86
2022-10-01T09:09:04.270Z,14.86
2022-10-01T09:12:04.302Z,14.82
2022-10-01T09:14:04.291Z,14.82
2022-10-01T09:17:04.273Z,14.86
2022-10-01T09:19:04.248Z,14.89
2022-10-01T09:21:04.273Z,14.91
2022-10-01T09:23:04.312Z,14.87
2022-10-01T09:26:04.262Z,14.8
2022-10-01T09:29:04.243Z,14.73
2022-10-01T09:31:04.285Z,14.72
2022-10-01T09:34:04.248Z,14.72
2022-10-01T09:36:04.287Z,14.73
2022-10-01T09:38:04.308Z,14.74
2022-10-01T09:41:04.312Z,14.78
2022-10-01T09:44:04.242Z,14.77
2022-10-01T09:46:04.404Z,14.8
2022-10-01T09:48:04.301Z,14.8
2022-10-01T09:51:04.271Z,14.92
2022-10-01T09:53:04.286Z,14.94
2022-10-01T09:56:04.273Z,15.04
2022-10-01T09:58:04.263Z,15.11
2022-10-01T10:00:04.250Z,15.24
2022-10-01T10:03:04.423Z,15.33
2022-10-01T10:05:04.289Z,15.38
2022-10-01T10:07:04.341Z,15.4
2022-10-01T10:10:04.251Z,15.45
2022-10-01T10:13:04.271Z,15.48
2022-10-01T10:15:04.277Z,15.52
2022-10-01T10:17:04.279Z,15.56
2022-10-01T10:20:04.253Z,15.58
2022-10-01T10:22:04.255Z,15.56
2022-10-01T10:24:04.265Z,15.44
2022-10-01T10:26:04.293Z,15.45
2022-10-01T10:29:04.316Z,15.45
2022-10-01T10:32:04.252Z,15.48
2022-10-01T10:34:04.242Z,15.51
2022-10-01T10:36:04.322Z,15.53
2022-10-01T10:39:04.300Z,15.58
2022-10-01T10:42:04.253Z,15.62
2022-10-01T10:45:04.272Z,15.68
2022-10-01T10:47:04.255Z,15.73
2022-10-01T10:50:04.318Z,15.78
2022-10-01T10:53:04.268Z,15.83
2022-10-01T10:55:04.282Z,15.84
2022-10-01T10:58:05.181Z,15.92
2022-10-01T11:01:04.313Z,15.98
2022-10-01T11:04:04.265Z,16.04
2022-10-01T11:06:04.292Z,16.07
2022-10-01T11:09:04.288Z,16.11
2022-10-01T11:12:04.294Z,16.18
2022-10-01T11:14:04.285Z,16.21
2022-10-01T11:17:04.294Z,16.29
2022-10-01T11:19:04.285Z,16.32
2022-10-01T11:22:04.292Z,16.34
2022-10-01T11:25:04.306Z,16.36
2022-10-01T11:28:04.312Z,16.37
2022-10-01T11:31:04.374Z,16.39
2022-10-01T11:33:04.274Z,16.42
2022-10-01T11:36:04.300Z,16.43
2022-10-01T11:39:04.239Z,16.45
2022-10-01T11:41:04.296Z,16.48
2022-10-01T11:44:04.263Z,16.52
2022-10-01T11:46:04.355Z,16.53
2022-10-01T11:48:04.278Z,16.58
2022-10-01T11:51:04.333Z,16.62
2022-10-01T11:54:04.334Z,16.69
2022-10-01T11:56:04.265Z,16.78
2022-10-01T11:58:04.257Z,16.9
2022-10-01T12:00:04.347Z,17.04
2022-10-01T12:03:04.301Z,17.27
2022-10-01T12:05:04.376Z,17.41
2022-10-01T12:08:04.271Z,17.54
2022-10-01T12:10:04.332Z,17.58
2022-10-01T12:13:04.297Z,17.6
2022-10-01T12:16:04.291Z,17.62
2022-10-01T12:19:04.296Z,17.66
2022-10-01T12:21:04.303Z,17.59
2022-10-01T12:24:04.269Z,17.43
2022-10-01T12:27:04.309Z,17.5
2022-10-01T12:30:04.289Z,17.54
2022-10-01T12:33:04.292Z,17.58
2022-10-01T12:35:04.307Z,17.57
2022-10-01T12:38:04.278Z,17.54
2022-10-01T12:40:04.392Z,17.52
2022-10-01T12:43:04.567Z,17.5
2022-10-01T12:45:04.283Z,17.46
2022-10-01T12:47:04.304Z,17.45
2022-10-01T12:50:04.363Z,17.39
2022-10-01T12:52:04.308Z,17.37
2022-10-01T12:55:04.265Z,17.37
2022-10-01T12:59:04.298Z,17.4
2022-10-01T13:02:04.401Z,17.49
2022-10-01T13:05:04.270Z,17.57
2022-10-01T13:07:04.292Z,17.62
2022-10-01T13:09:04.298Z,17.66
2022-10-01T13:12:04.237Z,17.68
2022-10-01T13:14:04.284Z,17.68
2022-10-01T13:16:04.309Z,17.68
2022-10-01T13:18:04.272Z,17.71
2022-10-01T13:20:04.325Z,17.76
2022-10-01T13:22:04.465Z,17.79
2022-10-01T13:25:04.248Z,17.85
2022-10-01T13:27:04.258Z,17.87
2022-10-01T13:29:04.285Z,17.91
2022-10-01T13:32:04.249Z,18
2022-10-01T13:34:04.276Z,18.04
2022-10-01T13:37:04.266Z,18.26
2022-10-01T13:40:04.271Z,18.54
2022-10-01T13:42:04.319Z,18.78
2022-10-01T13:45:04.272Z,19.17
2022-10-01T13:48:04.273Z,19.35
2022-10-01T13:50:04.261Z,19.35
2022-10-01T13:53:04.298Z,19.29
2022-10-01T13:56:04.280Z,19.17
2022-10-01T13:58:04.304Z,19.11
2022-10-01T14:03:04.688Z,18.95
2022-10-01T14:06:04.285Z,18.87
2022-10-01T14:08:06.528Z,18.83
2022-10-01T14:10:04.327Z,18.76
2022-10-01T14:13:04.356Z,18.69
2022-10-01T14:16:04.329Z,18.61
2022-10-01T14:18:04.356Z,18.54
2022-10-01T14:21:04.326Z,18.45
2022-10-01T14:23:04.335Z,18.42
2022-10-01T14:26:04.331Z,18.37
2022-10-01T14:29:04.305Z,18.33
2022-10-01T14:31:04.329Z,18.32
2022-10-01T14:33:04.330Z,18.32
2022-10-01T14:35:04.310Z,18.33
2022-10-01T14:38:04.324Z,18.33
2022-10-01T14:41:04.322Z,18.36
2022-10-01T14:44:04.329Z,18.36
2022-10-01T14:47:04.296Z,18.35
2022-10-01T14:49:04.300Z,18.34
2022-10-01T14:51:04.363Z,18.32
2022-10-01T14:54:04.315Z,18.29
2022-10-01T14:56:04.315Z,18.29
2022-10-01T14:59:04.336Z,18.29
2022-10-01T15:02:04.307Z,18.21
2022-10-01T15:04:04.394Z,18.2
2022-10-01T15:06:04.317Z,18.16
2022-10-01T15:09:04.343Z,18.15
2022-10-01T15:12:04.372Z,18.1
2022-10-01T15:15:04.332Z,18.04
2022-10-01T15:17:04.370Z,18.02
2022-10-01T15:20:04.330Z,17.99
2022-10-01T15:22:11.265Z,17.95
2022-10-01T15:25:04.344Z,17.87
2022-10-01T15:27:04.359Z,17.77
2022-10-01T15:30:04.322Z,17.68
2022-10-01T15:32:04.308Z,17.62
2022-10-01T15:35:04.331Z,17.37
2022-10-01T15:38:04.327Z,17.2
2022-10-01T15:41:20.085Z,17.15
2022-10-01T15:43:04.307Z,17.16
2022-10-01T15:45:04.288Z,17.15
2022-10-01T15:48:04.336Z,17.16
2022-10-01T15:51:04.308Z,17.16
2022-10-01T15:54:04.304Z,17.23
2022-10-01T15:56:04.324Z,17.29
2022-10-01T15:59:04.319Z,17.35
2022-10-01T16:01:04.513Z,17.36
2022-10-01T16:03:04.311Z,17.37
2022-10-01T16:06:04.299Z,17.36
2022-10-01T16:08:04.369Z,17.37
2022-10-01T16:11:04.323Z,17.42
2022-10-01T16:13:04.331Z,17.42
2022-10-01T16:16:04.360Z,17.41
2022-10-01T16:19:04.302Z,17.41
2022-10-01T16:21:58.729Z,17.35
2022-10-01T16:24:04.320Z,17.34
2022-10-01T16:26:04.296Z,17.37
2022-10-01T16:29:04.343Z,17.34
2022-10-01T16:32:04.325Z,17.31
2022-10-01T16:35:04.335Z,17.32
2022-10-01T16:38:04.322Z,17.25
2022-10-01T16:41:04.350Z,17.26
2022-10-01T16:44:04.327Z,17.29
2022-10-01T16:46:04.362Z,17.34
2022-10-01T16:49:04.417Z,17.39
2022-10-01T16:52:04.289Z,17.41
2022-10-01T16:54:04.318Z,17.4
2022-10-01T16:56:04.308Z,17.37
2022-10-01T16:58:04.303Z,17.4
2022-10-01T17:00:04.333Z,17.41
2022-10-01T17:03:04.328Z,17.37
2022-10-01T17:05:04.434Z,17.39
2022-10-01T17:08:04.301Z,17.4
2022-10-01T17:11:04.339Z,17.33
2022-10-01T17:13:04.328Z,17.28
2022-10-01T17:16:04.440Z,17.16
2022-10-01T17:18:04.334Z,17.16
2022-10-01T17:21:04.500Z,17.16
2022-10-01T17:24:04.305Z,17.23
2022-10-01T17:26:04.338Z,17.29
2022-10-01T17:29:04.331Z,17.34
2022-10-01T17:32:04.386Z,17.37
2022-10-01T17:35:04.311Z,17.36
2022-10-01T17:38:04.330Z,17.28
2022-10-01T17:41:04.302Z,17.18
2022-10-01T17:43:04.370Z,17.17
2022-10-01T17:46:04.330Z,17.21
2022-10-01T17:48:04.350Z,17.26
2022-10-01T17:51:04.323Z,17.29
2022-10-01T17:54:04.334Z,17.25
2022-10-01T17:56:04.319Z,17.27
2022-10-01T17:59:04.359Z,17.32
2022-10-01T18:02:14.040Z,17.25
2022-10-01T18:04:04.371Z,17.21
2022-10-01T18:07:04.339Z,17.26
2022-10-01T18:10:04.329Z,17.27
2022-10-01T18:13:04.314Z,17.2
2022-10-01T18:15:04.358Z,17.14
2022-10-01T18:21:04.367Z,17.12
2022-10-01T18:23:04.327Z,17.09
2022-10-01T18:26:04.333Z,17.1
2022-10-01T18:29:04.350Z,17.15
2022-10-01T18:31:04.389Z,17.2
2022-10-01T18:33:04.516Z,17.2
2022-10-01T18:36:05.221Z,17.09
2022-10-01T18:38:04.379Z,17.09
2022-10-01T18:40:04.403Z,17.11
2022-10-01T18:43:04.310Z,17.16
2022-10-01T18:45:04.323Z,17.18
2022-10-01T18:48:04.355Z,17.14
2022-10-01T18:50:04.985Z,17.04
2022-10-01T18:53:04.358Z,17
2022-10-01T18:56:04.348Z,17.02
2022-10-01T18:58:04.355Z,17
2022-10-01T19:00:04.396Z,16.95
2022-10-01T19:03:04.364Z,16.96
2022-10-01T19:05:04.337Z,16.99
2022-10-01T19:08:04.345Z,17.03
2022-10-01T19:10:04.371Z,17.07
2022-10-01T19:13:04.351Z,17.02
2022-10-01T19:15:04.357Z,17
2022-10-01T19:17:04.360Z,17.03
2022-10-01T19:20:04.352Z,17.06
2022-10-01T19:22:04.346Z,17.04
2022-10-01T19:25:04.363Z,17.08
2022-10-01T19:27:04.346Z,17.1
2022-10-01T19:30:04.420Z,17.03
2022-10-01T19:33:04.375Z,16.98
2022-10-01T19:36:04.352Z,16.95
2022-10-01T19:39:04.336Z,16.93
2022-10-01T19:41:04.359Z,16.89
2022-10-01T19:44:04.329Z,16.87
2022-10-01T19:47:04.424Z,16.89
2022-10-01T19:51:04.386Z,16.87
2022-10-01T19:54:04.363Z,16.87
2022-10-01T19:57:04.370Z,16.86
2022-10-01T19:59:04.381Z,16.86
2022-10-01T20:01:04.448Z,16.82
2022-10-01T20:04:04.380Z,16.85
2022-10-01T20:06:04.395Z,16.82
2022-10-01T20:09:04.372Z,16.85
2022-10-01T20:11:04.406Z,16.83
2022-10-01T20:14:04.406Z,16.85
2022-10-01T20:17:04.330Z,16.93
2022-10-01T20:19:04.425Z,16.98
2022-10-01T20:22:04.370Z,16.96
2022-10-01T20:25:04.371Z,16.99
2022-10-01T20:27:04.380Z,17.04
2022-10-01T20:30:04.475Z,17.11
2022-10-01T20:33:04.344Z,17.04
2022-10-01T20:35:04.392Z,17
2022-10-01T20:38:04.355Z,16.96
2022-10-01T20:40:04.389Z,16.96
2022-10-01T20:43:04.363Z,17
2022-10-01T20:46:04.509Z,16.93
2022-10-01T20:49:04.347Z,16.87
2022-10-01T20:51:04.604Z,16.87
2022-10-01T20:54:04.378Z,16.93
2022-10-01T20:56:04.449Z,16.95
2022-10-01T20:59:04.354Z,16.95
2022-10-01T21:02:04.376Z,16.9
2022-10-01T21:04:04.359Z,16.91
2022-10-01T21:06:04.401Z,16.91
2022-10-01T21:09:04.341Z,16.92
2022-10-01T21:11:04.424Z,16.91
2022-10-01T21:14:04.351Z,16.87
2022-10-01T21:16:04.476Z,16.87
2022-10-01T21:19:04.357Z,16.86
2022-10-01T21:21:04.384Z,16.85
2022-10-01T21:23:04.373Z,16.85
2022-10-01T21:26:04.413Z,16.83
2022-10-01T21:29:04.372Z,16.83
2022-10-01T21:32:04.583Z,16.85
2022-10-01T21:34:04.362Z,16.82
2022-10-01T21:36:04.360Z,16.87
2022-10-01T21:39:04.420Z,16.92
2022-10-01T21:41:04.371Z,16.92
2022-10-01T21:43:04.400Z,16.93
2022-10-01T21:46:04.466Z,16.95
2022-10-01T21:49:04.334Z,16.95
2022-10-01T21:51:04.365Z,16.95
2022-10-01T21:54:04.374Z,16.89
2022-10-01T21:57:04.383Z,16.92
2022-10-01T22:00:04.388Z,16.95
2022-10-01T22:03:04.449Z,16.99
2022-10-01T22:06:04.374Z,17.06
2022-10-01T22:08:04.431Z,17.09
2022-10-01T22:11:04.370Z,17.09
2022-10-01T22:17:04.396Z,17.04
2022-10-01T22:20:04.409Z,17
2022-10-01T22:22:04.519Z,17.02
2022-10-01T22:25:04.409Z,17.06
2022-10-01T22:28:04.390Z,17.02
2022-10-01T22:30:04.543Z,17
2022-10-01T22:33:05.192Z,16.94
2022-10-01T22:36:04.374Z,16.95
2022-10-01T22:39:04.383Z,16.94
2022-10-01T22:42:04.389Z,16.96
2022-10-01T22:44:04.370Z,16.95
2022-10-01T22:47:04.400Z,17.01
2022-10-01T22:49:04.425Z,17.04
2022-10-01T22:52:04.385Z,17.06
2022-10-01T22:54:04.423Z,17.09
2022-10-01T22:57:04.405Z,17.12
2022-10-01T23:00:04.436Z,17.14
2022-10-01T23:02:04.821Z,17.16
2022-10-01T23:05:04.403Z,17.1
2022-10-01T23:07:04.374Z,17.12
2022-10-01T23:09:04.385Z,17.1
2022-10-01T23:12:04.393Z,17.08
2022-10-01T23:14:04.619Z,17.02
2022-10-01T23:17:04.383Z,17.03
2022-10-01T23:19:04.384Z,17.07
2022-10-01T23:21:04.395Z,17.07
2022-10-01T23:24:04.459Z,17.08
2022-10-01T23:26:11.635Z,16.98
2022-10-01T23:29:04.423Z,16.98
2022-10-01T23:31:05.170Z,17.02
2022-10-01T23:33:11.625Z,17.01
2022-10-01T23:36:04.411Z,16.99
2022-10-01T23:39:04.436Z,17.07
2022-10-01T23:42:04.391Z,17.12
2022-10-01T23:44:04.414Z,17.12
2022-10-01T23:47:04.426Z,17
2022-10-01T23:50:04.373Z,17
2022-10-01T23:52:04.374Z,17
2022-10-01T23:55:05.116Z,16.98
2022-10-01T23:58:04.371Z,16.95
